Rechercher aéroport 
image banner adimage banner adimage banner ad
image banner ad

CN06 - Infineon Raceway Pad 2

Situé à Sonoma, United States

ICAO - CN06, IATA -

Données fournies par Airmate  

Information générale

Coordonnées: N38°9'18" W122°27'3"
Élévation : 110 feet MSL.
 
Voir autres Aéroports à California

Données opérationnelles

Special qualification required
Heure actuelle UTC:
Heure actuelle locale:
Météo à : KDVO - Gnoss Field ( 9 km )
METAR: KDVO 251635Z AUTO 00000KT 10SM CLR 18/12 A2997 RMK AO2
Voir NOTAMs / SUP AIP / TFR affectant cet aéroport [VIEW]
Fréquences de communication: [VIEW]

Pistes:

Coordonnées de l'aéroport

Adresse: Sonoma United States

Vue satellite de CN06